Time;durP1;ratioP1;P1;durP2;ratioP2;P2;SDS_P1;SDS_P2;PMS_P1;PMS_P2;Temp;Humidity;BMP_temperature;BMP_pressure;BME280_temperature;BME280_humidity;BME280_pressure;Samples;Min_cycle;Max_cycle;Signal;HPM_P1;HPM_P2
2022/01/17 00:00:41;;;;;;;;;;;;;;;14.36;64.96;102688.81;1058140;28;720;-60
2022/01/17 00:01:32;;;;;;;;;;;;;;;14.37;64.99;102693.25;1057614;28;1232;-60
2022/01/17 00:02:22;;;;;;;;;;;;;;;14.38;65.33;102699.47;1054375;28;860;-59
2022/01/17 00:03:13;;;;;;;;;;;;;;;14.37;65.76;102703.09;1055227;28;673;-60
2022/01/17 00:04:03;;;;;;;;;;;;;;;14.36;65.35;102699.56;1055173;28;656;-60
2022/01/17 00:04:54;;;;;;;;;;;;;;;14.38;65.38;102699.47;1055122;28;1975;-60
2022/01/17 00:05:44;;;;;;;;;;;;;;;14.37;65.10;102703.97;1055158;28;1041;-59
2022/01/17 00:06:34;;;;;;;;;;;;;;;14.38;65.01;102704.84;1055211;28;941;-61
2022/01/17 00:07:29;;;;;;;;;;;;;;;14.39;65.36;102702.09;1055084;28;742;-61
2022/01/17 00:08:19;;;;;;;;;;;;;;;14.35;65.25;102700.50;1055133;28;871;-61
2022/01/17 00:09:10;;;;;;;;;;;;;;;14.37;64.93;102703.97;1055252;28;653;-61
2022/01/17 00:10:00;;;;;;;;;;;;;;;14.36;65.03;102704.06;1055169;28;712;-61
2022/01/17 00:10:51;;;;;;;;;;;;;;;14.37;64.77;102703.09;1055151;28;832;-61
2022/01/17 00:11:44;;;;;;;;;;;;;;;14.36;64.68;102707.59;1055105;28;703;-61
2022/01/17 00:12:38;;;;;;;;;;;;;;;14.37;65.08;102703.09;1055133;28;737;-61
2022/01/17 00:13:29;;;;;;;;;;;;;;;14.39;65.56;102717.31;1055106;28;661;-60
2022/01/17 00:14:23;;;;;;;;;;;;;;;14.38;65.58;102710.22;1055124;28;708;-61
2022/01/17 00:15:20;;;;;;;;;;;;;;;14.37;65.35;102713.84;1055138;28;668;-60
2022/01/17 00:16:15;;;;;;;;;;;;;;;14.36;64.83;102712.97;1055018;28;727;-60
2022/01/17 00:17:29;;;;;;;;;;;;;;;14.36;65.02;102712.97;1054925;28;1352;-60
2022/01/17 00:18:27;;;;;;;;;;;;;;;14.36;64.86;102714.78;1055142;28;692;-60
2022/01/17 00:19:35;;;;;;;;;;;;;;;14.35;64.79;102713.91;1055110;28;724;-61
2022/01/17 00:20:26;;;;;;;;;;;;;;;14.34;65.09;102709.50;1055058;28;754;-60
2022/01/17 00:21:17;;;;;;;;;;;;;;;14.36;65.62;102717.47;1055171;28;720;-60
2022/01/17 00:22:07;;;;;;;;;;;;;;;14.36;64.64;102714.78;1053984;28;638;-60
2022/01/17 00:22:58;;;;;;;;;;;;;;;14.36;65.20;102712.09;1053846;28;916;-59
2022/01/17 00:23:49;;;;;;;;;;;;;;;14.36;64.34;102714.78;1053898;28;625;-60
2022/01/17 00:24:39;;;;;;;;;;;;;;;14.35;64.59;102715.72;1054792;28;752;-60
2022/01/17 00:25:30;;;;;;;;;;;;;;;14.36;65.54;102717.47;1053865;28;756;-60
2022/01/17 00:26:20;;;;;;;;;;;;;;;14.35;64.73;102705.00;1053385;28;736;-60
2022/01/17 00:27:10;;;;;;;;;;;;;;;14.35;64.48;102708.53;1053803;28;963;-61
2022/01/17 00:28:01;;;;;;;;;;;;;;;14.36;64.58;102709.41;1053993;28;645;-61
2022/01/17 00:28:51;;;;;;;;;;;;;;;14.35;64.60;102705.88;1054482;28;629;-61
2022/01/17 00:29:42;;;;;;;;;;;;;;;14.34;64.76;102703.25;1053795;28;795;-61
2022/01/17 00:30:32;;;;;;;;;;;;;;;14.34;64.24;102704.13;1055269;27;1775;-61
2022/01/17 00:31:22;;;;;;;;;;;;;;;14.31;65.32;102704.31;1054895;28;876;-61
2022/01/17 00:32:13;;;;;;;;;;;;;;;14.31;65.29;102708.81;1055061;28;663;-61
2022/01/17 00:33:03;;;;;;;;;;;;;;;14.30;64.98;102707.94;1054344;28;700;-61
2022/01/17 00:33:54;;;;;;;;;;;;;;;14.30;65.07;102707.06;1054989;28;1076;-60
2022/01/17 00:34:46;;;;;;;;;;;;;;;14.30;64.90;102701.69;1054874;28;773;-60
2022/01/17 00:35:36;;;;;;;;;;;;;;;14.29;64.91;102710.69;1054342;28;703;-60
2022/01/17 00:36:27;;;;;;;;;;;;;;;14.28;65.05;102709.81;1054982;28;801;-61
2022/01/17 00:37:17;;;;;;;;;;;;;;;14.30;65.77;102707.06;1054346;28;834;-61
2022/01/17 00:38:08;;;;;;;;;;;;;;;14.31;65.25;102719.53;1054231;28;872;-61
2022/01/17 00:38:58;;;;;;;;;;;;;;;14.29;64.85;102716.06;1053831;28;677;-61
2022/01/17 00:39:48;;;;;;;;;;;;;;;14.30;64.85;102717.78;1053588;28;745;-61
2022/01/17 00:40:40;;;;;;;;;;;;;;;14.31;64.58;102716.84;1053847;28;657;-61
2022/01/17 00:41:31;;;;;;;;;;;;;;;14.31;65.14;102719.53;1054455;28;889;-61
2022/01/17 00:42:22;;;;;;;;;;;;;;;14.31;64.99;102716.84;1054830;28;657;-61
2022/01/17 00:43:12;;;;;;;;;;;;;;;14.31;65.11;102723.09;1053278;28;649;-61
2022/01/17 00:44:03;;;;;;;;;;;;;;;14.31;65.00;102720.41;1053789;28;690;-61
2022/01/17 00:44:54;;;;;;;;;;;;;;;14.33;64.57;102712.28;1053057;28;1947;-60
2022/01/17 00:45:45;;;;;;;;;;;;;;;14.32;64.93;102710.53;1053893;28;640;-61
2022/01/17 00:46:35;;;;;;;;;;;;;;;14.33;64.87;102707.75;1053931;28;645;-61
2022/01/17 00:47:25;;;;;;;;;;;;;;;14.31;64.78;102704.31;1056642;28;1858;-60
2022/01/17 00:48:16;;;;;;;;;;;;;;;14.31;65.05;102708.81;1053840;28;915;-60
2022/01/17 00:49:06;;;;;;;;;;;;;;;14.31;64.22;102708.81;1054294;28;2011;-60
2022/01/17 00:49:57;;;;;;;;;;;;;;;14.29;63.92;102700.84;1052985;28;1188;-61
2022/01/17 00:50:47;;;;;;;;;;;;;;;14.29;64.84;102706.19;1054239;28;739;-60
2022/01/17 00:51:38;;;;;;;;;;;;;;;14.29;64.95;102705.31;1053171;28;687;-61
2022/01/17 00:52:28;;;;;;;;;;;;;;;14.27;65.16;102702.72;1053657;28;779;-61
2022/01/17 00:53:18;;;;;;;;;;;;;;;14.25;65.18;102697.44;1053734;28;672;-61
2022/01/17 00:54:09;;;;;;;;;;;;;;;14.27;64.90;102701.84;1053347;28;633;-61
2022/01/17 00:54:59;;;;;;;;;;;;;;;14.25;64.71;102694.75;1050498;28;751;-61
2022/01/17 00:55:50;;;;;;;;;;;;;;;14.27;64.45;102696.50;1049897;28;621;-61
2022/01/17 00:56:40;;;;;;;;;;;;;;;14.26;65.34;102700.97;1053651;28;849;-61
2022/01/17 00:57:30;;;;;;;;;;;;;;;14.24;65.27;102698.38;1053661;28;660;-60
2022/01/17 00:58:21;;;;;;;;;;;;;;;14.23;64.62;102693.97;1053236;28;672;-61
2022/01/17 00:59:11;;;;;;;;;;;;;;;14.22;65.19;102697.59;1053809;28;668;-60
2022/01/17 01:00:02;;;;;;;;;;;;;;;14.23;65.28;102693.97;1053328;28;767;-60
2022/01/17 01:00:53;;;;;;;;;;;;;;;14.20;65.48;102693.25;1053611;28;836;-61
2022/01/17 01:01:43;;;;;;;;;;;;;;;14.21;65.52;102697.66;1053533;28;1202;-61
2022/01/17 01:02:33;;;;;;;;;;;;;;;14.20;65.68;102693.25;1053696;28;719;-61
2022/01/17 01:03:24;;;;;;;;;;;;;;;14.19;64.85;102700.41;1053153;28;637;-61
2022/01/17 01:04:14;;;;;;;;;;;;;;;14.19;65.42;102695.06;1050525;28;708;-62
2022/01/17 01:05:05;;;;;;;;;;;;;;;14.22;64.31;102699.41;1049837;28;1963;-62
2022/01/17 01:05:55;;;;;;;;;;;;;;;14.21;65.47;102700.34;1054266;28;689;-60
2022/01/17 01:06:45;;;;;;;;;;;;;;;14.22;64.59;102702.94;1055422;28;1827;-60
2022/01/17 01:07:36;;;;;;;;;;;;;;;14.22;64.50;102704.75;1056485;28;2419;-59
2022/01/17 01:08:26;;;;;;;;;;;;;;;14.22;64.55;102705.63;1057395;28;814;-61
2022/01/17 01:09:17;;;;;;;;;;;;;;;14.21;64.43;102709.25;1057298;28;746;-61
2022/01/17 01:10:10;;;;;;;;;;;;;;;14.21;64.25;102703.88;1057401;28;783;-61
2022/01/17 01:11:01;;;;;;;;;;;;;;;14.23;64.36;102709.19;1057889;28;844;-61
2022/01/17 01:11:51;;;;;;;;;;;;;;;14.22;64.91;102716.34;1057491;28;743;-61
2022/01/17 01:12:41;;;;;;;;;;;;;;;14.24;64.29;102711.78;1058509;28;699;-62
2022/01/17 01:13:32;;;;;;;;;;;;;;;14.23;64.63;102718.09;1057383;28;786;-62
2022/01/17 01:14:22;;;;;;;;;;;;;;;14.24;63.80;102724.31;1057090;28;826;-62
2022/01/17 01:15:17;;;;;;;;;;;;;;;14.22;64.77;102721.72;1058482;28;849;-62
2022/01/17 01:17:06;;;;;;;;;;;;;;;14.23;64.08;102722.59;1057947;28;1476;-61
2022/01/17 01:18:00;;;;;;;;;;;;;;;14.23;64.62;102734.19;1057945;28;677;-62
2022/01/17 01:19:44;;;;;;;;;;;;;;;14.22;63.96;102736.94;1057814;28;870;-61
2022/01/17 01:28:14;;;;;;;;;;;;;;;14.22;64.32;102727.09;1058458;28;707;-60
2022/01/17 01:29:04;;;;;;;;;;;;;;;14.23;63.60;102730.63;1057927;28;776;-61
2022/01/17 01:29:58;;;;;;;;;;;;;;;14.23;64.59;102733.31;1056915;28;1834;-60
2022/01/17 01:30:52;;;;;;;;;;;;;;;14.22;65.03;102737.81;1057792;28;791;-60
2022/01/17 01:31:44;;;;;;;;;;;;;;;14.22;64.78;102747.66;1057744;28;1295;-61
2022/01/17 01:32:43;;;;;;;;;;;;;;;14.20;64.56;102739.69;1057728;28;715;-60
2022/01/17 01:33:38;;;;;;;;;;;;;;;14.20;65.04;102733.47;1057844;28;689;-62
2022/01/17 01:34:41;;;;;;;;;;;;;;;14.19;64.65;102737.94;1057914;28;665;-60
2022/01/17 01:35:33;;;;;;;;;;;;;;;14.17;64.59;102737.16;1057830;28;730;-62
2022/01/17 01:36:27;;;;;;;;;;;;;;;14.18;65.22;102738.91;1057734;28;762;-62
2022/01/17 01:37:18;;;;;;;;;;;;;;;14.18;64.74;102741.56;1057801;28;916;-61
2022/01/17 01:38:08;;;;;;;;;;;;;;;14.17;64.51;102750.56;1057815;28;833;-61
2022/01/17 01:38:59;;;;;;;;;;;;;;;14.17;64.75;102747.00;1055325;28;1853;-61
2022/01/17 01:39:51;;;;;;;;;;;;;;;14.17;65.30;102745.19;1054747;28;697;-61
2022/01/17 01:40:42;;;;;;;;;;;;;;;14.17;64.41;102745.19;1053466;28;830;-61
2022/01/17 01:41:32;;;;;;;;;;;;;;;14.19;64.67;102747.81;1054852;28;613;-60
2022/01/17 01:42:23;;;;;;;;;;;;;;;14.19;64.79;102748.69;1054765;28;740;-61
2022/01/17 01:43:14;;;;;;;;;;;;;;;14.18;64.45;102749.63;1053665;28;661;-61
2022/01/17 01:44:05;;;;;;;;;;;;;;;14.17;64.65;102747.88;1054802;28;708;-60
2022/01/17 01:44:55;;;;;;;;;;;;;;;14.18;64.09;102743.38;1053405;28;1910;-60
2022/01/17 01:45:45;;;;;;;;;;;;;;;14.16;64.37;102750.63;1053606;28;749;-61
2022/01/17 01:46:36;;;;;;;;;;;;;;;14.16;64.26;102739.91;1058993;27;871;-61
2022/01/17 01:47:26;;;;;;;;;;;;;;;14.14;64.70;102737.34;1055682;28;1847;-62
2022/01/17 01:48:20;;;;;;;;;;;;;;;14.13;63.79;102738.28;1054788;28;622;-61
2022/01/17 01:49:10;;;;;;;;;;;;;;;14.14;64.13;102742.69;1054717;28;1844;-60
2022/01/17 01:50:01;;;;;;;;;;;;;;;14.14;64.27;102731.97;1057198;28;684;-61
2022/01/17 01:50:51;;;;;;;;;;;;;;;14.14;64.75;102733.78;1058169;28;742;-61
2022/01/17 01:51:42;;;;;;;;;;;;;;;14.13;64.75;102729.38;1057068;28;678;-60
2022/01/17 01:52:32;;;;;;;;;;;;;;;14.13;65.16;102737.41;1057869;28;634;-61
2022/01/17 01:53:23;;;;;;;;;;;;;;;14.12;64.88;102739.22;1057732;28;683;-61
2022/01/17 01:54:13;;;;;;;;;;;;;;;14.11;64.56;102739.28;1057944;28;751;-61
2022/01/17 01:55:04;;;;;;;;;;;;;;;14.12;63.78;102743.72;1057693;28;910;-61
2022/01/17 01:55:54;;;;;;;;;;;;;;;14.10;64.30;102735.75;1058285;28;652;-62
2022/01/17 01:56:45;;;;;;;;;;;;;;;14.09;64.20;102742.06;1056919;28;685;-62
2022/01/17 01:57:35;;;;;;;;;;;;;;;14.09;64.42;102738.50;1057774;28;622;-62
2022/01/17 01:58:25;;;;;;;;;;;;;;;14.07;64.59;102730.53;1054014;28;1883;-61
2022/01/17 01:59:19;;;;;;;;;;;;;;;14.08;64.47;102734.94;1054733;28;922;-62
2022/01/17 02:00:10;;;;;;;;;;;;;;;14.08;65.20;102726.91;1054257;28;621;-61
2022/01/17 02:01:01;;;;;;;;;;;;;;;14.08;64.74;102726.91;1054628;28;808;-61
2022/01/17 02:01:51;;;;;;;;;;;;;;;14.08;65.04;102723.34;1054034;28;1024;-60
2022/01/17 02:02:42;;;;;;;;;;;;;;;14.08;64.44;102718.88;1054653;28;719;-61
2022/01/17 02:03:32;;;;;;;;;;;;;;;14.09;64.89;102725.09;1053547;28;745;-60
2022/01/17 02:04:23;;;;;;;;;;;;;;;14.08;64.88;102726.03;1054150;28;909;-61
2022/01/17 02:05:13;;;;;;;;;;;;;;;14.09;64.25;102719.72;1054014;28;1913;-61
2022/01/17 02:06:03;;;;;;;;;;;;;;;14.07;64.67;102719.81;1054136;28;653;-61
2022/01/17 02:06:54;;;;;;;;;;;;;;;14.08;64.03;102713.50;1054771;28;677;-61
2022/01/17 02:07:44;;;;;;;;;;;;;;;14.07;64.67;102722.50;1054062;28;754;-60
2022/01/17 02:08:35;;;;;;;;;;;;;;;14.08;65.12;102720.69;1054112;28;645;-60
2022/01/17 02:09:25;;;;;;;;;;;;;;;14.08;64.22;102718.88;1054099;28;917;-61
2022/01/17 02:10:15;;;;;;;;;;;;;;;14.08;64.50;102723.34;1054269;28;911;-61
2022/01/17 02:11:10;;;;;;;;;;;;;;;14.08;64.26;102723.34;1054229;28;637;-61
2022/01/17 02:12:01;;;;;;;;;;;;;;;14.08;64.16;102723.34;1053507;28;770;-60
2022/01/17 02:12:51;;;;;;;;;;;;;;;14.07;64.68;102726.97;1054572;28;816;-60
2022/01/17 02:13:41;;;;;;;;;;;;;;;14.07;64.03;102727.84;1054570;28;734;-61
2022/01/17 02:14:32;;;;;;;;;;;;;;;14.08;65.00;102734.94;1054671;28;688;-61
2022/01/17 02:15:22;;;;;;;;;;;;;;;14.08;64.69;102737.63;1054242;28;708;-61
2022/01/17 02:16:15;;;;;;;;;;;;;;;14.10;64.21;102733.06;1053939;28;775;-61
2022/01/17 02:17:05;;;;;;;;;;;;;;;14.10;64.41;102735.75;1053962;28;1110;-61
2022/01/17 02:17:57;;;;;;;;;;;;;;;14.10;64.11;102741.09;1053356;28;1856;-60
2022/01/17 02:18:49;;;;;;;;;;;;;;;14.10;64.09;102733.06;1054072;28;700;-60
2022/01/17 02:19:45;;;;;;;;;;;;;;;14.10;64.41;102743.78;1054003;28;694;-61
2022/01/17 02:20:45;;;;;;;;;;;;;;;14.11;64.38;102748.22;1053999;28;790;-60
2022/01/17 02:21:46;;;;;;;;;;;;;;;14.10;64.85;102738.44;1054085;28;629;-59
2022/01/17 02:22:36;;;;;;;;;;;;;;;14.10;64.76;102746.47;1053988;28;645;-61
2022/01/17 02:23:26;;;;;;;;;;;;;;;14.08;64.49;102751.03;1054474;28;810;-61
2022/01/17 02:24:18;;;;;;;;;;;;;;;14.06;65.02;102747.56;1053347;28;843;-61
2022/01/17 02:25:08;;;;;;;;;;;;;;;14.07;64.33;102759.16;1053605;28;1898;-59
2022/01/17 02:25:59;;;;;;;;;;;;;;;14.07;64.60;102762.69;1055958;27;771;-60
2022/01/17 02:26:50;;;;;;;;;;;;;;;14.08;64.32;102760.88;1053375;28;553;-60
2022/01/17 02:27:40;;;;;;;;;;;;;;;14.08;64.59;102769.81;1054140;28;661;-61
2022/01/17 02:28:33;;;;;;;;;;;;;;;14.09;64.07;102768.84;1049813;28;956;-60
2022/01/17 02:29:24;;;;;;;;;;;;;;;14.09;64.32;102760.81;1051414;28;1451;-61
2022/01/17 02:30:16;;;;;;;;;;;;;;;14.09;64.31;102765.31;1049227;28;614;-61
2022/01/17 02:31:06;;;;;;;;;;;;;;;14.07;64.64;102757.34;1054023;28;641;-60
2022/01/17 02:31:57;;;;;;;;;;;;;;;14.06;64.28;102758.28;1053954;28;938;-60
2022/01/17 02:32:47;;;;;;;;;;;;;;;14.06;64.70;102754.72;1054545;28;789;-61
2022/01/17 02:33:37;;;;;;;;;;;;;;;14.06;65.07;102757.41;1054028;28;626;-61
2022/01/17 02:34:28;;;;;;;;;;;;;;;14.06;63.83;102757.41;1054012;28;860;-61
2022/01/17 02:35:18;;;;;;;;;;;;;;;14.06;64.46;102758.28;1054568;28;633;-60
2022/01/17 02:36:09;;;;;;;;;;;;;;;14.05;64.56;102756.53;1054850;28;707;-60
2022/01/17 02:36:59;;;;;;;;;;;;;;;14.05;64.33;102758.34;1053878;28;864;-60
2022/01/17 02:37:50;;;;;;;;;;;;;;;14.05;64.54;102756.53;1053962;28;2026;-61
2022/01/17 02:38:40;;;;;;;;;;;;;;;14.05;65.12;102750.31;1054610;28;921;-61
2022/01/17 02:39:30;;;;;;;;;;;;;;;14.05;64.39;102750.31;1054518;28;650;-61
2022/01/17 02:40:21;;;;;;;;;;;;;;;14.04;63.90;102760.16;1054711;28;772;-62
2022/01/17 02:41:12;;;;;;;;;;;;;;;14.04;65.08;102756.63;1054783;28;854;-62
2022/01/17 02:42:02;;;;;;;;;;;;;;;14.05;64.19;102756.53;1054190;28;605;-62
2022/01/17 02:42:59;;;;;;;;;;;;;;;14.06;64.45;102755.59;1053907;28;788;-61
2022/01/17 02:43:50;;;;;;;;;;;;;;;14.04;64.59;102752.13;1053968;28;637;-61
2022/01/17 02:44:45;;;;;;;;;;;;;;;14.02;64.82;102756.69;1054120;28;653;-61
2022/01/17 02:46:24;;;;;;;;;;;;;;;14.02;64.60;102756.69;1053873;28;687;-62
2022/01/17 02:46:49;;;;;;;;;;;;;;;14.03;64.44;102749.50;1057175;28;1779;-60
2022/01/17 02:47:39;;;;;;;;;;;;;;;14.03;64.18;102747.69;1057581;28;711;-60
2022/01/17 02:48:29;;;;;;;;;;;;;;;14.04;64.01;102751.25;1057734;28;712;-61
2022/01/17 02:49:20;;;;;;;;;;;;;;;14.04;64.26;102740.53;1057673;28;874;-61
2022/01/17 02:50:10;;;;;;;;;;;;;;;14.04;64.48;102735.16;1058652;28;739;-61
2022/01/17 02:51:01;;;;;;;;;;;;;;;14.02;64.05;102740.59;1058435;28;850;-60
2022/01/17 02:51:51;;;;;;;;;;;;;;;14.02;64.08;102737.91;1058409;28;633;-60
2022/01/17 02:52:42;;;;;;;;;;;;;;;14.01;64.82;102733.50;1058491;28;597;-61
2022/01/17 02:53:32;;;;;;;;;;;;;;;14.02;64.27;102740.59;1058473;28;758;-60
2022/01/17 02:54:22;;;;;;;;;;;;;;;14.01;64.96;102746.91;1058602;28;902;-61
2022/01/17 02:55:13;;;;;;;;;;;;;;;14.03;64.47;102745.03;1058417;28;856;-59
2022/01/17 02:56:03;;;;;;;;;;;;;;;14.02;64.57;102735.25;1058631;28;636;-60
2022/01/17 02:56:54;;;;;;;;;;;;;;;14.02;63.92;102737.06;1058411;28;700;-60
2022/01/17 02:57:44;;;;;;;;;;;;;;;14.01;64.36;102725.47;1058343;28;869;-61
2022/01/17 02:58:35;;;;;;;;;;;;;;;14.00;64.21;102715.69;1058634;28;645;-61
2022/01/17 02:59:25;;;;;;;;;;;;;;;14.02;64.81;102729.00;1055197;28;2002;-60
2022/01/17 03:00:15;;;;;;;;;;;;;;;14.00;65.02;102726.41;1054790;28;655;-60
2022/01/17 03:01:06;;;;;;;;;;;;;;;14.01;63.59;102728.13;1055424;28;651;-60
2022/01/17 03:01:59;;;;;;;;;;;;;;;14.01;64.26;102727.28;1054789;28;1006;-61
2022/01/17 03:02:49;;;;;;;;;;;;;;;14.01;64.26;102728.13;1053669;28;707;-61
2022/01/17 03:03:41;;;;;;;;;;;;;;;14.01;64.68;102727.28;1054759;28;795;-59
2022/01/17 03:04:33;;;;;;;;;;;;;;;14.02;64.74;102729.88;1054913;28;665;-59
2022/01/17 03:05:23;;;;;;;;;;;;;;;14.03;64.85;102728.06;1053573;28;814;-60
2022/01/17 03:06:13;;;;;;;;;;;;;;;14.00;64.29;102723.72;1053878;28;791;-62
2022/01/17 03:07:04;;;;;;;;;;;;;;;14.00;64.83;102739.81;1055365;28;992;-62
2022/01/17 03:07:54;;;;;;;;;;;;;;;14.02;64.56;102734.38;1055350;28;834;-62
2022/01/17 03:08:45;;;;;;;;;;;;;;;14.00;64.28;102742.47;1055384;28;770;-62
2022/01/17 03:09:44;;;;;;;;;;;;;;;14.00;65.07;102742.47;1055478;28;598;-62
2022/01/17 03:10:43;;;;;;;;;;;;;;;13.98;64.64;102736.31;1055439;28;691;-62
2022/01/17 03:11:33;;;;;;;;;;;;;;;13.97;64.99;102731.94;1049688;28;671;-62
2022/01/17 03:12:24;;;;;;;;;;;;;;;13.97;65.37;102742.66;1050442;28;891;-62
2022/01/17 03:13:14;;;;;;;;;;;;;;;13.95;65.22;102731.16;1054781;28;766;-62
2022/01/17 03:14:05;;;;;;;;;;;;;;;13.95;64.37;102733.81;1054764;28;1880;-62
2022/01/17 03:14:55;;;;;;;;;;;;;;;13.95;64.42;102728.47;1054673;28;1444;-62
2022/01/17 03:15:46;;;;;;;;;;;;;;;13.95;64.24;102727.59;1055984;27;625;-62
2022/01/17 03:16:41;;;;;;;;;;;;;;;13.97;64.63;102728.38;1055335;28;832;-60
2022/01/17 03:17:31;;;;;;;;;;;;;;;13.98;64.49;102739.00;1055813;27;703;-60
2022/01/17 03:18:22;;;;;;;;;;;;;;;14.00;64.73;102736.25;1054143;28;894;-61
2022/01/17 03:19:12;;;;;;;;;;;;;;;13.99;64.92;102739.88;1056009;27;632;-60
2022/01/17 03:20:03;;;;;;;;;;;;;;;13.97;65.10;102739.97;1055801;27;590;-61
2022/01/17 03:20:53;;;;;;;;;;;;;;;13.99;64.15;102739.88;1055996;27;696;-60
2022/01/17 03:21:43;;;;;;;;;;;;;;;13.98;64.05;102741.69;1055853;27;617;-60
2022/01/17 03:22:34;;;;;;;;;;;;;;;14.00;63.85;102730.91;1055968;27;1852;-60
2022/01/17 03:23:24;;;;;;;;;;;;;;;13.99;64.36;102730.03;1055356;28;629;-60
2022/01/17 03:24:15;;;;;;;;;;;;;;;13.98;64.60;102728.28;1055344;28;672;-61
2022/01/17 03:25:05;;;;;;;;;;;;;;;13.97;63.69;102721.22;1054719;28;1959;-61
2022/01/17 03:25:56;;;;;;;;;;;;;;;13.96;65.17;102727.53;1054724;28;693;-61
2022/01/17 03:26:46;;;;;;;;;;;;;;;13.96;64.28;102734.69;1054690;28;795;-60
2022/01/17 03:27:36;;;;;;;;;;;;;;;13.96;64.70;102727.53;1055306;28;715;-61
2022/01/17 03:28:27;;;;;;;;;;;;;;;13.96;65.15;102737.38;1055492;28;645;-61
2022/01/17 03:29:17;;;;;;;;;;;;;;;13.96;64.44;102738.25;1054732;28;684;-61
2022/01/17 03:30:08;;;;;;;;;;;;;;;13.95;64.60;102728.47;1054696;28;618;-61
2022/01/17 03:30:58;;;;;;;;;;;;;;;13.94;64.97;102742.81;1054689;28;898;-61
2022/01/17 03:31:49;;;;;;;;;;;;;;;13.96;64.04;102734.69;1057948;28;1572;-61
2022/01/17 03:32:39;;;;;;;;;;;;;;;13.96;64.64;102732.00;1058226;28;714;-61
2022/01/17 03:33:29;;;;;;;;;;;;;;;13.96;63.83;102732.88;1058333;28;692;-61
2022/01/17 03:34:20;;;;;;;;;;;;;;;13.96;63.91;102735.56;1058264;28;948;-61
2022/01/17 03:35:10;;;;;;;;;;;;;;;13.97;64.10;102737.31;1058364;28;828;-61
2022/01/17 03:36:01;;;;;;;;;;;;;;;13.98;64.17;102728.28;1058402;28;732;-61
2022/01/17 03:36:51;;;;;;;;;;;;;;;13.95;65.17;102732.97;1058269;28;794;-60
2022/01/17 03:37:42;;;;;;;;;;;;;;;13.95;64.94;102733.81;1058381;28;781;-61
2022/01/17 03:38:33;;;;;;;;;;;;;;;13.92;64.48;102739.31;1057939;28;721;-60
2022/01/17 03:39:23;;;;;;;;;;;;;;;13.92;64.53;102738.47;1053782;28;865;-61
2022/01/17 03:40:13;;;;;;;;;;;;;;;13.93;64.81;102745.56;1053951;28;776;-60
2022/01/17 03:41:05;;;;;;;;;;;;;;;13.91;64.56;102742.94;1058820;28;849;-61
2022/01/17 03:41:55;;;;;;;;;;;;;;;13.93;63.95;102743.75;1057789;28;684;-61
2022/01/17 03:42:46;;;;;;;;;;;;;;;13.94;65.08;102739.25;1058039;28;786;-60
2022/01/17 03:43:36;;;;;;;;;;;;;;;13.95;64.06;102741.00;1058191;28;928;-61
2022/01/17 03:44:27;;;;;;;;;;;;;;;13.94;65.20;102740.13;1058452;28;649;-61
2022/01/17 03:45:17;;;;;;;;;;;;;;;13.93;63.87;102738.38;1058155;28;1957;-61
2022/01/17 03:46:07;;;;;;;;;;;;;;;13.94;64.96;102741.94;1058321;28;720;-61
2022/01/17 03:46:58;;;;;;;;;;;;;;;13.93;64.84;102740.19;1054506;28;1563;-61
2022/01/17 03:47:48;;;;;;;;;;;;;;;13.93;64.66;102740.19;1055130;28;937;-61
2022/01/17 03:48:39;;;;;;;;;;;;;;;13.92;64.97;102738.47;1055198;28;613;-61
2022/01/17 03:49:29;;;;;;;;;;;;;;;13.91;64.84;102740.28;1055242;28;945;-61
2022/01/17 03:50:19;;;;;;;;;;;;;;;13.90;64.12;102739.41;1055201;28;792;-60
2022/01/17 03:51:10;;;;;;;;;;;;;;;13.92;64.65;102746.50;1055268;28;711;-60
2022/01/17 03:52:00;;;;;;;;;;;;;;;13.89;64.39;102740.34;1055163;28;690;-61
2022/01/17 03:52:51;;;;;;;;;;;;;;;13.90;64.38;102744.75;1055151;28;650;-61
2022/01/17 03:53:41;;;;;;;;;;;;;;;13.90;64.38;102743.91;1055249;28;833;-61
2022/01/17 03:54:31;;;;;;;;;;;;;;;13.89;64.90;102742.16;1055263;28;633;-61
2022/01/17 03:55:22;;;;;;;;;;;;;;;13.89;64.95;102744.84;1055343;28;617;-60
2022/01/17 03:56:12;;;;;;;;;;;;;;;13.88;64.43;102740.41;1050788;28;874;-60
2022/01/17 03:57:03;;;;;;;;;;;;;;;13.88;64.36;102748.47;1050224;28;724;-61
2022/01/17 03:57:53;;;;;;;;;;;;;;;13.89;64.84;102750.19;1055101;28;752;-60
2022/01/17 03:58:44;;;;;;;;;;;;;;;13.88;64.88;102752.00;1055120;28;640;-59
2022/01/17 03:59:34;;;;;;;;;;;;;;;13.88;64.96;102753.81;1055324;28;632;-60
2022/01/17 04:00:24;;;;;;;;;;;;;;;13.86;64.87;102753.00;1055230;28;684;-60
2022/01/17 04:01:15;;;;;;;;;;;;;;;13.87;64.49;102757.44;1055169;28;681;-60
2022/01/17 04:02:06;;;;;;;;;;;;;;;13.88;64.44;102761.84;1055628;27;993;-60
2022/01/17 04:02:56;;;;;;;;;;;;;;;13.87;64.22;102769.03;1053427;28;630;-60
2022/01/17 04:03:46;;;;;;;;;;;;;;;13.89;64.34;102760.91;1054595;28;2064;-60
2022/01/17 04:04:37;;;;;;;;;;;;;;;13.89;64.20;102760.91;1055234;28;784;-60
2022/01/17 04:05:27;;;;;;;;;;;;;;;13.89;64.72;102766.28;1055083;28;637;-60
2022/01/17 04:06:18;;;;;;;;;;;;;;;13.88;64.01;102756.50;1055217;28;933;-59
2022/01/17 04:07:09;;;;;;;;;;;;;;;13.88;64.77;102769.91;1054235;28;793;-60
2022/01/17 04:07:59;;;;;;;;;;;;;;;13.87;64.63;102758.31;1056446;27;711;-59
2022/01/17 04:08:49;;;;;;;;;;;;;;;13.87;64.48;102763.66;1054672;28;632;-60
2022/01/17 04:09:40;;;;;;;;;;;;;;;13.88;64.62;102769.91;1055133;28;664;-59
2022/01/17 04:10:30;;;;;;;;;;;;;;;13.88;64.18;102768.09;1054486;28;855;-60
2022/01/17 04:11:21;;;;;;;;;;;;;;;13.89;64.48;102769.81;1053954;28;789;-60
2022/01/17 04:12:11;;;;;;;;;;;;;;;13.87;64.79;102774.38;1056470;27;652;-60
2022/01/17 04:13:04;;;;;;;;;;;;;;;13.87;64.49;102773.50;1056284;27;632;-60
2022/01/17 04:13:54;;;;;;;;;;;;;;;13.88;63.97;102772.56;1054596;28;694;-60
2022/01/17 04:14:45;;;;;;;;;;;;;;;13.87;64.30;102779.75;1055070;28;720;-59
2022/01/17 04:15:35;;;;;;;;;;;;;;;13.87;64.49;102784.22;1054549;28;645;-60
2022/01/17 04:16:26;;;;;;;;;;;;;;;13.87;64.86;102785.09;1054625;28;725;-60
2022/01/17 04:17:16;;;;;;;;;;;;;;;13.87;64.86;102782.44;1054549;28;684;-60
2022/01/17 04:18:07;;;;;;;;;;;;;;;13.86;64.90;102787.84;1055203;28;703;-60
2022/01/17 04:18:57;;;;;;;;;;;;;;;13.85;63.93;102781.63;1055560;28;1651;-60
2022/01/17 04:19:52;;;;;;;;;;;;;;;13.84;64.89;102781.69;1057552;28;601;-61
2022/01/17 04:20:42;;;;;;;;;;;;;;;13.82;64.40;102775.53;1056876;28;1794;-61
2022/01/17 04:21:35;;;;;;;;;;;;;;;13.82;64.21;102770.19;1053976;28;656;-60
2022/01/17 04:22:26;;;;;;;;;;;;;;;13.82;64.83;102768.38;1053011;28;696;-60
2022/01/17 04:23:18;;;;;;;;;;;;;;;13.82;64.46;102760.31;1053905;28;953;-61
2022/01/17 04:24:08;;;;;;;;;;;;;;;13.83;64.69;102766.56;1054257;28;641;-61
2022/01/17 04:24:58;;;;;;;;;;;;;;;13.82;64.08;102763.00;1053410;28;1968;-62
2022/01/17 04:25:49;;;;;;;;;;;;;;;13.83;64.44;102762.06;1053159;28;621;-61
2022/01/17 04:26:40;;;;;;;;;;;;;;;13.83;64.86;102761.19;1053915;28;650;-61
2022/01/17 04:27:30;;;;;;;;;;;;;;;13.82;64.65;102763.00;1055023;28;632;-61
2022/01/17 04:28:20;;;;;;;;;;;;;;;13.81;64.63;102763.06;1055154;28;719;-61
2022/01/17 04:29:11;;;;;;;;;;;;;;;13.82;64.56;102763.00;1053264;28;715;-61
2022/01/17 04:30:01;;;;;;;;;;;;;;;13.80;64.94;102764.03;1053248;28;659;-60
2022/01/17 04:30:52;;;;;;;;;;;;;;;13.80;64.77;102766.69;1053864;28;660;-60
2022/01/17 04:31:42;;;;;;;;;;;;;;;13.80;64.70;102767.56;1053059;28;991;-60
2022/01/17 04:32:32;;;;;;;;;;;;;;;13.81;64.48;102768.44;1053346;28;678;-60
2022/01/17 04:33:23;;;;;;;;;;;;;;;13.82;64.06;102778.22;1055079;28;849;-60
2022/01/17 04:34:13;;;;;;;;;;;;;;;13.81;64.33;102774.66;1053422;28;640;-60
2022/01/17 04:35:04;;;;;;;;;;;;;;;13.81;64.16;102779.16;1053400;28;673;-61
2022/01/17 04:35:54;;;;;;;;;;;;;;;13.81;64.20;102779.16;1053249;28;684;-60
2022/01/17 04:36:44;;;;;;;;;;;;;;;13.83;63.58;102777.28;1053321;28;795;-60
2022/01/17 04:37:35;;;;;;;;;;;;;;;13.82;64.13;102776.41;1053158;28;728;-61
2022/01/17 04:38:25;;;;;;;;;;;;;;;13.81;64.41;102773.78;1053354;28;1784;-61
2022/01/17 04:39:17;;;;;;;;;;;;;;;13.80;64.81;102764.88;1057418;28;1960;-61